Time;durP1;ratioP1;P1;durP2;ratioP2;P2;SDS_P1;SDS_P2;PMS_P1;PMS_P2;Temp;Humidity;BMP_temperature;BMP_pressure;BME280_temperature;BME280_humidity;BME280_pressure;Samples;Min_cycle;Max_cycle;Signal;HPM_P1;HPM_P2
2023/07/21 00:02:02;;;;;;;12.35;7.28;;;27.90;96.70;;;;;;5091689;28;20085;-82
2023/07/21 00:04:31;;;;;;;12.20;6.63;;;27.70;96.70;;;;;;5106970;27;20080;-81
2023/07/21 00:06:59;;;;;;;11.63;6.88;;;27.60;96.70;;;;;;5103959;27;20085;-81
2023/07/21 00:09:27;;;;;;;12.85;6.80;;;27.50;96.70;;;;;;5096617;28;20218;-82
2023/07/21 00:11:54;;;;;;;10.00;6.88;;;27.50;96.70;;;;;;5106037;27;20066;-82
2023/07/21 00:14:24;;;;;;;8.77;5.82;;;27.60;96.70;;;;;;5115237;27;20051;-82
2023/07/21 00:16:53;;;;;;;8.57;5.88;;;27.50;96.70;;;;;;5094681;28;20050;-81
2023/07/21 00:19:21;;;;;;;11.57;6.15;;;27.40;96.70;;;;;;5068981;28;20598;-82
2023/07/21 00:21:51;;;;;;;14.55;5.82;;;27.30;96.70;;;;;;5103182;27;20105;-82
2023/07/21 00:24:20;;;;;;;9.52;5.35;;;27.30;96.70;;;;;;5079047;28;20122;-80
2023/07/21 00:26:48;;;;;;;8.57;5.55;;;27.30;96.70;;;;;;5096187;28;20101;-81
2023/07/21 00:29:16;;;;;;;9.63;5.05;;;27.00;96.70;;;;;;5099206;28;20053;-81
2023/07/21 00:31:48;;;;;;;9.98;6.03;;;26.70;96.70;;;;;;5097811;28;20420;-81
2023/07/21 00:34:17;;;;;;;10.68;6.03;;;26.70;96.70;;;;;;5111654;27;20043;-81
2023/07/21 00:36:45;;;;;;;10.32;5.80;;;26.60;96.70;;;;;;5112649;27;20650;-81
2023/07/21 00:39:15;;;;;;;11.73;6.05;;;26.50;96.70;;;;;;5099980;28;20541;-81
2023/07/21 00:41:43;;;;;;;9.70;6.20;;;26.50;96.70;;;;;;5100980;27;20032;-82
2023/07/21 00:44:12;;;;;;;13.70;6.15;;;26.60;96.70;;;;;;5083009;28;20040;-81
2023/07/21 00:46:41;;;;;;;9.60;5.90;;;26.60;96.70;;;;;;5100455;27;20040;-81
2023/07/21 00:49:10;;;;;;;13.43;6.32;;;26.80;96.70;;;;;;5084854;28;20489;-81
2023/07/21 00:51:39;;;;;;;8.65;5.80;;;26.90;96.70;;;;;;5083606;28;20032;-81
2023/07/21 00:54:07;;;;;;;8.50;5.20;;;26.90;96.70;;;;;;5082120;28;20150;-80
2023/07/21 00:56:37;;;;;;;10.15;5.72;;;26.90;96.70;;;;;;5086310;28;20497;-81
2023/07/21 00:59:05;;;;;;;7.60;5.55;;;26.90;96.70;;;;;;5087203;28;20052;-80
2023/07/21 01:01:34;;;;;;;6.38;5.20;;;26.80;96.70;;;;;;5095027;27;20056;-81
2023/07/21 01:04:02;;;;;;;9.90;5.63;;;26.90;96.70;;;;;;5110488;27;20058;-82
2023/07/21 01:06:31;;;;;;;9.52;5.30;;;26.90;96.70;;;;;;5088457;28;20052;-81
2023/07/21 01:09:02;;;;;;;8.65;4.70;;;27.00;96.70;;;;;;5090089;28;20072;-81
2023/07/21 01:11:30;;;;;;;6.28;4.72;;;27.00;96.70;;;;;;5093890;28;20047;-81
2023/07/21 01:14:04;;;;;;;9.98;5.10;;;26.90;96.70;;;;;;5093063;28;20063;-81
2023/07/21 01:16:37;;;;;;;8.00;4.93;;;27.00;96.70;;;;;;5084219;28;20082;-81
2023/07/21 01:43:38;;;;;;;6.15;4.60;;;26.60;96.70;;;;;;5068741;28;20421;-81
2023/07/21 01:46:10;;;;;;;8.27;4.45;;;26.50;96.70;;;;;;5084335;28;21307;-81
2023/07/21 01:48:40;;;;;;;7.53;4.93;;;26.60;96.70;;;;;;5085771;28;20040;-81
2023/07/21 01:51:11;;;;;;;5.55;4.63;;;26.60;96.70;;;;;;5092345;28;20050;-82
2023/07/21 02:48:30;;;;;;;7.72;4.70;;;26.00;96.70;;;;;;5093621;28;20059;-80
2023/07/21 02:51:00;;;;;;;8.98;5.05;;;26.00;96.70;;;;;;5080058;28;20584;-81
2023/07/21 02:53:34;;;;;;;7.50;5.38;;;26.00;96.70;;;;;;5113888;27;20112;-81
2023/07/21 02:56:03;;;;;;;7.82;4.80;;;25.90;96.70;;;;;;5095474;28;20056;-81
2023/07/21 02:58:46;;;;;;;9.30;5.85;;;26.00;96.70;;;;;;5111538;27;20040;-78
2023/07/21 03:01:18;;;;;;;6.43;4.88;;;26.20;96.70;;;;;;5096467;28;20055;-78
2023/07/21 03:03:47;;;;;;;8.30;5.18;;;26.10;96.70;;;;;;5103693;27;20051;-79
2023/07/21 03:06:17;;;;;;;8.23;5.32;;;26.00;96.70;;;;;;5094551;28;20044;-78
2023/07/21 03:08:45;;;;;;;11.75;6.50;;;26.00;96.70;;;;;;5107032;27;20079;-78
2023/07/21 03:11:14;;;;;;;8.68;6.00;;;25.90;96.70;;;;;;5094015;28;20044;-78
2023/07/21 03:13:55;;;;;;;7.45;5.15;;;25.90;96.70;;;;;;5094907;27;20055;-79
2023/07/21 03:16:24;;;;;;;8.40;5.05;;;26.00;96.70;;;;;;5094376;27;20567;-78
2023/07/21 03:18:57;;;;;;;8.30;5.57;;;26.00;96.70;;;;;;5102281;27;20040;-77
2023/07/21 03:21:27;;;;;;;7.97;5.82;;;26.10;96.70;;;;;;5102299;27;20130;-78
2023/07/21 03:23:56;;;;;;;9.25;5.65;;;26.00;96.70;;;;;;5086557;28;20580;-78
2023/07/21 03:26:28;;;;;;;8.93;5.93;;;26.00;96.70;;;;;;5115219;27;20142;-78
2023/07/21 03:28:56;;;;;;;9.27;5.97;;;26.00;96.70;;;;;;5104486;27;20102;-78
2023/07/21 03:31:27;;;;;;;8.45;5.80;;;26.00;96.70;;;;;;5085193;28;20044;-78
2023/07/21 03:34:00;;;;;;;7.03;6.13;;;26.00;96.70;;;;;;5087398;28;20161;-78
2023/07/21 03:36:31;;;;;;;9.40;6.18;;;26.00;96.70;;;;;;5112317;27;20685;-78
2023/07/21 03:39:00;;;;;;;11.07;6.35;;;25.90;96.70;;;;;;5101644;27;20058;-78
2023/07/21 03:41:28;;;;;;;10.77;6.45;;;25.80;96.70;;;;;;5089033;28;20074;-80
2023/07/21 03:43:58;;;;;;;12.38;6.43;;;25.70;96.70;;;;;;5100990;27;20052;-78
2023/07/21 03:46:27;;;;;;;7.82;5.28;;;25.70;96.70;;;;;;5084643;28;20093;-78
2023/07/21 03:49:14;;;;;;;7.32;5.00;;;25.70;96.70;;;;;;5102154;27;20054;-79
2023/07/21 03:51:50;;;;;;;8.07;5.80;;;25.60;96.70;;;;;;5104920;27;20055;-77
2023/07/21 03:54:18;;;;;;;8.88;5.45;;;25.60;96.70;;;;;;5111271;27;20048;-79
2023/07/21 03:56:46;;;;;;;7.50;5.18;;;25.60;96.70;;;;;;5092481;28;20533;-78
2023/07/21 03:59:14;;;;;;;7.03;5.00;;;25.60;96.70;;;;;;5108494;27;20055;-78
2023/07/21 05:01:15;;;;;;;16.70;6.40;;;25.70;96.70;;;;;;5089642;28;20062;-81
2023/07/21 05:03:43;;;;;;;10.10;6.55;;;25.70;96.70;;;;;;5085150;28;20137;-82
2023/07/21 05:06:13;;;;;;;13.30;7.05;;;25.90;96.70;;;;;;5102015;28;20048;-81
2023/07/21 05:08:48;;;;;;;14.07;6.38;;;25.80;96.70;;;;;;5101370;27;20055;-80
2023/07/21 05:11:16;;;;;;;12.63;6.47;;;25.80;96.70;;;;;;5093769;28;20051;-82
2023/07/21 05:13:45;;;;;;;12.50;6.15;;;25.90;96.70;;;;;;5092501;28;20040;-81
2023/07/21 05:16:25;;;;;;;11.10;6.45;;;25.80;96.70;;;;;;5104267;27;20067;-80
2023/07/21 05:19:12;;;;;;;10.57;5.40;;;25.80;96.70;;;;;;5101924;27;20055;-80
2023/07/21 05:21:49;;;;;;;11.77;5.55;;;25.70;96.70;;;;;;5096264;27;20079;-80
2023/07/21 05:24:35;;;;;;;9.82;5.68;;;25.80;96.70;;;;;;5099527;27;20509;-80
2023/07/21 05:27:05;;;;;;;12.15;5.97;;;25.80;96.70;;;;;;5101885;28;20067;-81
2023/07/21 05:29:44;;;;;;;12.82;5.65;;;25.80;96.70;;;;;;5105799;27;20048;-80
2023/07/21 05:32:15;;;;;;;11.20;6.07;;;25.90;96.70;;;;;;5109473;27;20528;-80
2023/07/21 05:34:49;;;;;;;15.20;6.05;;;25.90;96.70;;;;;;5087710;28;20050;-84
2023/07/21 05:37:17;;;;;;;11.02;6.10;;;25.80;96.70;;;;;;5085677;28;20377;-79
2023/07/21 05:39:48;;;;;;;13.48;6.82;;;25.90;96.70;;;;;;5110196;28;20096;-80
2023/07/21 05:42:21;;;;;;;11.85;6.53;;;26.00;96.70;;;;;;5082714;28;20059;-81
2023/07/21 05:44:49;;;;;;;14.55;6.68;;;26.00;96.70;;;;;;5115571;27;20116;-82
2023/07/21 05:47:20;;;;;;;10.05;6.70;;;25.90;96.70;;;;;;5088081;28;20408;-81
2023/07/21 05:49:55;;;;;;;9.07;5.82;;;25.90;96.70;;;;;;5117797;28;20050;-81
2023/07/21 05:52:25;;;;;;;10.45;5.95;;;26.00;96.70;;;;;;5111946;28;20055;-81
2023/07/21 05:54:53;;;;;;;12.05;6.43;;;26.20;96.70;;;;;;5096246;28;20040;-81
2023/07/21 05:57:27;;;;;;;10.93;6.55;;;26.30;96.70;;;;;;5109873;28;20044;-82
2023/07/21 05:59:56;;;;;;;9.93;5.82;;;26.40;96.70;;;;;;5086709;28;20048;-82
2023/07/21 06:02:26;;;;;;;12.05;6.07;;;26.40;96.70;;;;;;5101673;28;20074;-81
2023/07/21 06:04:59;;;;;;;9.43;6.32;;;26.40;96.70;;;;;;5100109;28;20055;-81
2023/07/21 06:07:43;;;;;;;10.93;6.40;;;26.50;96.70;;;;;;5107789;28;20072;-80
2023/07/21 06:10:20;;;;;;;10.65;6.22;;;26.50;96.70;;;;;;5104309;28;20436;-80
2023/07/21 06:13:21;;;;;;;11.07;6.18;;;26.70;96.70;;;;;;5082378;28;20409;-81
2023/07/21 06:16:03;;;;;;;10.55;6.07;;;26.80;96.70;;;;;;5111275;28;20116;-81
2023/07/21 06:18:42;;;;;;;11.02;5.97;;;26.70;96.70;;;;;;5107939;28;20117;-81
2023/07/21 06:21:11;;;;;;;11.25;6.05;;;26.80;96.70;;;;;;5104772;28;20073;-82
2023/07/21 06:23:44;;;;;;;9.88;5.75;;;26.70;96.70;;;;;;5084410;28;20135;-81
2023/07/21 06:26:12;;;;;;;10.65;5.95;;;26.70;96.70;;;;;;5075120;28;20051;-82
2023/07/21 06:28:40;;;;;;;8.95;5.85;;;26.70;96.70;;;;;;5088644;28;20080;-81
2023/07/21 06:31:12;;;;;;;10.20;5.95;;;26.60;96.70;;;;;;5087641;28;20101;-81
2023/07/21 06:33:55;;;;;;;10.35;5.43;;;26.60;96.70;;;;;;5087948;28;20078;-81
2023/07/21 06:36:47;;;;;;;10.35;5.50;;;26.70;96.70;;;;;;5065373;28;21224;-81
2023/07/21 06:39:15;;;;;;;8.55;5.80;;;26.80;96.70;;;;;;5100571;28;20047;-81
2023/07/21 06:41:54;;;;;;;11.27;6.15;;;26.90;96.70;;;;;;5086588;28;20558;-81
2023/07/21 06:44:34;;;;;;;12.15;6.70;;;27.00;96.70;;;;;;5101165;28;20044;-79
2023/07/21 06:47:23;;;;;;;8.88;6.10;;;27.10;96.70;;;;;;5093107;28;20075;-80
2023/07/21 06:50:11;;;;;;;10.52;5.65;;;27.10;96.70;;;;;;5093448;28;20049;-83
2023/07/21 06:52:46;;;;;;;9.32;6.10;;;27.20;96.70;;;;;;5089723;28;20048;-82
2023/07/21 06:55:17;;;;;;;9.50;5.65;;;27.20;96.70;;;;;;5089435;28;20427;-82
2023/07/21 06:57:45;;;;;;;10.35;5.47;;;27.40;96.70;;;;;;5111703;28;20036;-82
2023/07/21 07:00:15;;;;;;;10.15;5.88;;;27.50;96.70;;;;;;5102226;28;20091;-82
2023/07/21 07:02:49;;;;;;;17.35;6.20;;;27.50;96.70;;;;;;5089736;28;20486;-82
2023/07/21 07:05:19;;;;;;;8.63;5.45;;;27.50;96.70;;;;;;5105502;27;20063;-82
2023/07/21 07:07:50;;;;;;;8.32;5.13;;;27.60;96.70;;;;;;5118488;27;20035;-83
2023/07/21 07:10:21;;;;;;;8.85;5.50;;;27.60;96.70;;;;;;5100914;28;20631;-83
2023/07/21 07:12:50;;;;;;;10.98;5.10;;;27.80;96.70;;;;;;5115177;27;20051;-83
2023/07/21 07:15:18;;;;;;;8.93;5.32;;;27.90;96.70;;;;;;5089941;28;20035;-82
2023/07/21 07:17:48;;;;;;;11.32;5.55;;;27.90;96.70;;;;;;5113542;27;20075;-81
2023/07/21 07:20:19;;;;;;;9.20;5.20;;;28.00;96.70;;;;;;5110056;27;20130;-82
2023/07/21 07:22:48;;;;;;;8.02;5.38;;;28.00;96.70;;;;;;5098245;28;20531;-81
2023/07/21 07:25:16;;;;;;;9.23;4.90;;;27.90;96.70;;;;;;5091096;28;20064;-84
2023/07/21 07:27:44;;;;;;;8.65;5.55;;;27.90;96.70;;;;;;5097572;28;20079;-83
2023/07/21 07:30:12;;;;;;;10.55;5.45;;;28.00;96.70;;;;;;5100007;28;20564;-83
2023/07/21 07:32:40;;;;;;;10.15;4.57;;;28.00;96.70;;;;;;5114365;27;20051;-82
2023/07/21 07:35:10;;;;;;;10.40;5.25;;;28.10;96.70;;;;;;5088911;28;20135;-83
2023/07/21 07:37:40;;;;;;;8.20;4.65;;;28.20;96.70;;;;;;5079115;28;20105;-81
2023/07/21 07:40:10;;;;;;;9.73;4.72;;;28.40;96.70;;;;;;5088518;28;20043;-81
2023/07/21 07:42:40;;;;;;;9.02;4.90;;;28.50;96.70;;;;;;5089171;28;20113;-80
2023/07/21 07:45:08;;;;;;;10.75;4.80;;;28.50;96.70;;;;;;5087986;28;20441;-82
2023/07/21 07:47:36;;;;;;;8.70;4.57;;;28.50;96.70;;;;;;5096311;28;20047;-82
2023/07/21 07:50:06;;;;;;;7.15;3.97;;;28.50;96.70;;;;;;5112255;27;20047;-84
2023/07/21 07:52:34;;;;;;;10.40;4.85;;;28.60;96.70;;;;;;5088610;28;20204;-83
2023/07/21 07:55:05;;;;;;;9.60;4.88;;;28.60;96.70;;;;;;5081033;28;20052;-83
2023/07/21 07:57:34;;;;;;;11.43;4.47;;;28.70;96.70;;;;;;5105491;27;20052;-84
2023/07/21 08:00:05;;;;;;;7.95;3.60;;;28.80;96.70;;;;;;5090076;28;20062;-82
2023/07/21 08:02:38;;;;;;;7.32;4.80;;;28.90;96.70;;;;;;5089848;28;20524;-82
2023/07/21 08:05:07;;;;;;;8.15;3.92;;;28.90;96.70;;;;;;5105752;27;20536;-82
2023/07/21 08:07:36;;;;;;;10.02;4.30;;;29.00;96.70;;;;;;5104811;28;20139;-86
2023/07/21 08:10:07;;;;;;;10.25;5.22;;;29.00;96.70;;;;;;5105057;28;20044;-87
2023/07/21 08:12:35;;;;;;;8.32;4.60;;;29.10;96.70;;;;;;5089424;28;20498;-86
2023/07/21 08:15:04;;;;;;;10.73;4.20;;;29.20;96.70;;;;;;5097083;28;20409;-85
2023/07/21 08:17:36;;;;;;;7.55;4.15;;;29.40;96.70;;;;;;5088436;28;20056;-84
2023/07/21 08:20:06;;;;;;;11.45;3.92;;;29.40;96.70;;;;;;5103270;28;20105;-84
2023/07/21 08:22:34;;;;;;;8.88;4.50;;;29.60;96.70;;;;;;5095523;28;20044;-83
2023/07/21 08:25:02;;;;;;;12.32;5.05;;;29.70;96.70;;;;;;5104141;28;20044;-82
2023/07/21 08:27:35;;;;;;;13.30;5.50;;;29.80;96.70;;;;;;5094860;28;20047;-82
2023/07/21 08:30:04;;;;;;;11.48;5.57;;;29.80;96.70;;;;;;5109984;27;20072;-84
2023/07/21 08:32:32;;;;;;;13.55;4.43;;;29.80;96.70;;;;;;5089193;28;20117;-84
2023/07/21 08:35:00;;;;;;;9.23;3.90;;;29.80;96.70;;;;;;5097015;28;20056;-83
2023/07/21 08:37:29;;;;;;;7.03;4.22;;;29.90;96.70;;;;;;5088739;28;20442;-84
2023/07/21 08:39:57;;;;;;;8.43;4.18;;;30.10;96.70;;;;;;5088628;28;20058;-84
2023/07/21 08:42:26;;;;;;;7.70;4.13;;;30.10;96.70;;;;;;5088460;28;20067;-83
2023/07/21 08:44:57;;;;;;;8.10;4.13;;;30.00;96.70;;;;;;5112918;27;20286;-83
2023/07/21 08:47:25;;;;;;;8.70;4.32;;;29.90;96.70;;;;;;5107235;27;20055;-83
2023/07/21 08:49:53;;;;;;;10.88;4.80;;;29.90;96.70;;;;;;5109766;27;20398;-83
2023/07/21 08:52:22;;;;;;;10.15;5.15;;;30.00;96.70;;;;;;5102312;27;20089;-83
2023/07/21 08:54:50;;;;;;;10.05;5.13;;;30.00;96.70;;;;;;5108076;27;20044;-83
2023/07/21 08:57:18;;;;;;;12.77;4.78;;;30.10;96.70;;;;;;5119230;27;20067;-82
2023/07/21 08:59:47;;;;;;;10.23;4.68;;;30.20;96.70;;;;;;5099368;28;20047;-82
2023/07/21 09:02:16;;;;;;;8.23;3.90;;;30.20;96.70;;;;;;5086803;28;20067;-83
2023/07/21 09:04:45;;;;;;;7.20;4.45;;;30.30;96.70;;;;;;5102820;27;20117;-82
2023/07/21 09:07:13;;;;;;;8.40;3.45;;;30.30;96.70;;;;;;5110601;27;20047;-82
2023/07/21 09:09:49;;;;;;;7.00;3.50;;;30.40;96.70;;;;;;5103434;27;20044;-82
2023/07/21 09:12:17;;;;;;;6.25;3.58;;;30.50;96.70;;;;;;5079794;28;20052;-82
2023/07/21 09:14:47;;;;;;;6.00;3.45;;;30.50;96.70;;;;;;5088277;28;20041;-83
2023/07/21 09:17:16;;;;;;;7.70;3.55;;;30.70;96.70;;;;;;5103161;28;20048;-83
2023/07/21 09:19:45;;;;;;;9.05;3.70;;;30.70;96.70;;;;;;5090894;28;20055;-82
2023/07/21 09:22:14;;;;;;;7.15;3.58;;;30.80;96.70;;;;;;5087130;28;20118;-82
2023/07/21 09:24:49;;;;;;;7.20;3.72;;;30.80;96.70;;;;;;5085605;28;20067;-83
2023/07/21 09:27:19;;;;;;;7.07;3.00;;;30.90;96.70;;;;;;5102730;27;20517;-83
2023/07/21 09:29:47;;;;;;;6.82;3.67;;;31.00;96.70;;;;;;5109322;27;20439;-82
2023/07/21 09:32:19;;;;;;;8.77;3.75;;;31.00;96.70;;;;;;5104319;28;20051;-83
2023/07/21 09:34:55;;;;;;;6.97;3.70;;;31.10;96.70;;;;;;5096028;28;20066;-83
2023/07/21 09:37:26;;;;;;;6.47;3.30;;;31.10;96.70;;;;;;5102823;27;20130;-83
2023/07/21 09:39:58;;;;;;;6.25;3.55;;;31.20;96.70;;;;;;5097347;28;20549;-83
2023/07/21 09:42:28;;;;;;;7.65;3.72;;;31.20;96.70;;;;;;5113925;27;20043;-82
2023/07/21 09:44:57;;;;;;;7.35;3.30;;;31.00;96.70;;;;;;5095665;28;20071;-81
2023/07/21 09:47:27;;;;;;;8.05;3.78;;;31.10;96.70;;;;;;5103195;28;20101;-81
2023/07/21 09:49:58;;;;;;;6.82;3.45;;;31.10;96.70;;;;;;5091533;28;20408;-84
2023/07/21 09:52:28;;;;;;;7.57;3.58;;;31.20;96.70;;;;;;5091680;28;20048;-84
2023/07/21 09:55:04;;;;;;;8.25;3.63;;;31.30;96.70;;;;;;5103556;28;20044;-83
2023/07/21 09:57:37;;;;;;;6.13;3.72;;;31.30;96.70;;;;;;5080088;28;20521;-83
2023/07/21 10:00:13;;;;;;;5.60;3.65;;;31.30;96.70;;;;;;5089523;28;20056;-84
2023/07/21 10:02:43;;;;;;;;;;;31.40;96.70;;;;;;5093735;28;20450;-81
2023/07/21 10:05:13;;;;;;;9.45;4.15;;;31.40;96.70;;;;;;5116537;28;19924;-81
2023/07/21 10:07:43;;;;;;;8.45;3.80;;;31.60;96.70;;;;;;5078063;28;20106;-81
2023/07/21 10:10:12;;;;;;;7.57;3.75;;;31.70;96.70;;;;;;5110427;28;20394;-81
2023/07/21 10:12:42;;;;;;;6.43;3.70;;;31.70;96.70;;;;;;5110158;28;20469;-81
2023/07/21 10:15:15;;;;;;;8.45;3.53;;;31.90;96.70;;;;;;5096829;28;20131;-80
2023/07/21 10:17:58;;;;;;;6.25;3.58;;;32.00;96.70;;;;;;5103105;28;20510;-82
2023/07/21 10:20:38;;;;;;;7.88;3.42;;;32.00;96.70;;;;;;5101082;28;20048;-81
2023/07/21 10:23:06;;;;;;;7.32;3.50;;;32.10;96.70;;;;;;5086014;28;20079;-81
2023/07/21 10:25:59;;;;;;;7.07;3.42;;;32.10;96.70;;;;;;5101899;28;20109;-81
2023/07/21 10:28:41;;;;;;;7.50;3.78;;;32.20;96.70;;;;;;5096002;28;20044;-81
2023/07/21 10:31:36;;;;;;;6.32;3.58;;;32.10;96.70;;;;;;5084969;28;20413;-82
2023/07/21 10:34:09;;;;;;;7.50;3.90;;;32.30;96.70;;;;;;5079853;28;20054;-82
2023/07/21 10:36:42;;;;;;;11.38;4.53;;;32.50;96.70;;;;;;5117486;27;20505;-81
2023/07/21 10:39:12;;;;;;;9.93;3.60;;;32.50;96.70;;;;;;5106698;27;20048;-82
2023/07/21 10:41:40;;;;;;;7.05;3.85;;;32.40;96.70;;;;;;5099147;28;20414;-82
2023/07/21 10:44:10;;;;;;;8.10;3.53;;;32.50;96.70;;;;;;5097341;28;20544;-81
2023/07/21 10:46:40;;;;;;;9.52;3.53;;;32.60;96.70;;;;;;5098448;28;20052;-81
2023/07/21 10:49:10;;;;;;;7.35;3.38;;;32.70;96.70;;;;;;5091813;28;20048;-82
2023/07/21 10:51:39;;;;;;;8.57;3.60;;;32.80;96.70;;;;;;5096895;28;20078;-81
2023/07/21 10:54:08;;;;;;;6.97;4.25;;;32.90;96.70;;;;;;5098198;28;20130;-82
2023/07/21 10:56:38;;;;;;;7.10;3.78;;;32.90;96.70;;;;;;5081002;28;20044;-81
2023/07/21 10:59:07;;;;;;;7.03;3.30;;;33.00;96.70;;;;;;5098504;28;20061;-81
2023/07/21 11:01:40;;;;;;;7.93;3.63;;;33.00;96.70;;;;;;5108102;27;20088;-81
2023/07/21 11:04:11;;;;;;;7.32;3.63;;;33.10;96.70;;;;;;5097525;28;20040;-81
2023/07/21 11:06:40;;;;;;;6.55;3.78;;;33.10;96.70;;;;;;5113106;27;20696;-81
2023/07/21 11:09:11;;;;;;;9.18;4.20;;;33.20;96.70;;;;;;5096724;28;20117;-81
2023/07/21 11:11:41;;;;;;;8.55;3.70;;;33.20;96.70;;;;;;5113690;27;20052;-81
2023/07/21 11:14:11;;;;;;;10.93;3.70;;;33.30;96.70;;;;;;5098402;28;20043;-80
2023/07/21 11:16:43;;;;;;;11.95;3.88;;;33.30;96.70;;;;;;5101653;28;20544;-80
2023/07/21 11:19:15;;;;;;;5.45;3.50;;;33.40;96.70;;;;;;5072780;28;20067;-81
2023/07/21 11:21:44;;;;;;;7.40;3.78;;;33.50;96.70;;;;;;5104853;27;20489;-79
2023/07/21 11:24:16;;;;;;;7.80;3.92;;;33.70;96.70;;;;;;5085827;28;20072;-79
2023/07/21 11:26:47;;;;;;;7.15;3.67;;;33.70;96.70;;;;;;5090357;28;20491;-80
2023/07/21 11:29:15;;;;;;;9.60;3.90;;;33.70;96.70;;;;;;5094260;28;20067;-80
2023/07/21 11:31:43;;;;;;;8.05;3.95;;;33.80;96.70;;;;;;5086534;28;20044;-78
2023/07/21 11:34:21;;;;;;;5.95;3.25;;;33.70;96.70;;;;;;5095428;28;20040;-79
2023/07/21 11:36:54;;;;;;;7.13;3.90;;;33.80;96.70;;;;;;5096435;28;20056;-79
2023/07/21 11:39:23;;;;;;;7.72;3.85;;;33.90;96.70;;;;;;5104496;28;20040;-80
2023/07/21 11:41:53;;;;;;;8.25;4.22;;;34.10;96.70;;;;;;5104632;27;20056;-80
2023/07/21 11:44:23;;;;;;;6.45;4.28;;;34.30;96.70;;;;;;5111339;27;20071;-80
2023/07/21 11:47:03;;;;;;;14.23;5.10;;;34.20;96.70;;;;;;5085989;28;20075;-80
2023/07/21 11:49:38;;;;;;;8.10;3.97;;;34.00;96.70;;;;;;5107694;27;20048;-80
2023/07/21 11:52:08;;;;;;;8.70;3.90;;;34.00;96.70;;;;;;5103952;28;20523;-76
2023/07/21 11:54:41;;;;;;;10.48;4.20;;;34.00;96.70;;;;;;5104204;28;20068;-77
2023/07/21 11:57:10;;;;;;;9.32;3.85;;;34.00;96.70;;;;;;5108137;27;20044;-79
2023/07/21 11:59:38;;;;;;;7.25;4.00;;;34.20;96.70;;;;;;5099556;28;20139;-78
2023/07/21 12:02:08;;;;;;;9.38;4.30;;;34.30;96.70;;;;;;5106159;27;20039;-76
2023/07/21 12:04:37;;;;;;;8.27;4.20;;;34.30;96.70;;;;;;5119051;27;20043;-77
2023/07/21 12:07:08;;;;;;;10.57;4.03;;;34.40;96.70;;;;;;5118762;27;20117;-77
2023/07/21 12:09:38;;;;;;;7.22;3.78;;;34.70;96.70;;;;;;5097130;28;20322;-77
2023/07/21 12:12:07;;;;;;;5.75;3.47;;;34.60;96.70;;;;;;5112766;27;20046;-77
2023/07/21 12:14:36;;;;;;;8.60;4.50;;;34.40;96.70;;;;;;5093563;28;20050;-76
2023/07/21 12:17:04;;;;;;;10.38;4.50;;;34.10;96.70;;;;;;5100103;28;20493;-76
2023/07/21 12:19:34;;;;;;;10.27;3.85;;;34.00;96.70;;;;;;5108921;27;20047;-76
2023/07/21 12:22:06;;;;;;;11.00;4.15;;;34.20;96.70;;;;;;5095059;28;20124;-76
2023/07/21 12:24:34;;;;;;;7.78;3.83;;;34.50;96.70;;;;;;5105487;28;20043;-76
2023/07/21 12:27:04;;;;;;;7.85;3.72;;;34.70;96.70;;;;;;5096394;28;20051;-76
2023/07/21 12:29:32;;;;;;;7.55;3.63;;;34.60;96.70;;;;;;5095556;28;20074;-76
2023/07/21 12:32:13;;;;;;;7.47;3.50;;;34.60;96.70;;;;;;5085979;28;20047;-76
2023/07/21 12:34:41;;;;;;;11.57;3.70;;;34.60;96.70;;;;;;5093391;28;20054;-76
2023/07/21 12:37:11;;;;;;;8.65;4.13;;;34.60;96.70;;;;;;5107356;27;20089;-76
2023/07/21 12:39:40;;;;;;;9.18;4.13;;;34.60;96.70;;;;;;5099880;28;20451;-76
2023/07/21 12:42:08;;;;;;;6.50;3.78;;;34.70;96.70;;;;;;5083700;28;20039;-76
2023/07/21 12:44:36;;;;;;;11.20;4.10;;;34.80;96.70;;;;;;5103218;28;20043;-75
2023/07/21 12:47:06;;;;;;;12.25;3.95;;;34.80;96.70;;;;;;5102083;28;20056;-76
2023/07/21 12:49:34;;;;;;;6.30;3.50;;;34.70;96.70;;;;;;5094893;28;20047;-79
2023/07/21 12:52:03;;;;;;;8.52;3.72;;;34.30;96.70;;;;;;5111275;27;20043;-78
2023/07/21 12:54:32;;;;;;;9.93;4.25;;;34.00;96.70;;;;;;5093060;28;20880;-79
2023/07/21 12:57:01;;;;;;;7.78;4.10;;;33.80;96.70;;;;;;5092099;28;20063;-77
2023/07/21 12:59:30;;;;;;;9.55;3.95;;;34.00;96.70;;;;;;5104332;28;20480;-77
2023/07/21 13:01:58;;;;;;;11.25;4.10;;;34.10;96.70;;;;;;5104251;28;20505;-78
2023/07/21 13:04:26;;;;;;;8.90;3.85;;;34.30;96.70;;;;;;5105117;28;20045;-76
2023/07/21 13:06:55;;;;;;;8.52;4.15;;;34.40;96.70;;;;;;5103029;28;20061;-76
2023/07/21 13:09:24;;;;;;;6.18;3.90;;;34.30;96.70;;;;;;5088414;28;20489;-76
2023/07/21 13:11:56;;;;;;;8.00;4.38;;;34.20;96.70;;;;;;5107213;27;20043;-77
2023/07/21 13:14:24;;;;;;;10.15;3.53;;;34.10;96.70;;;;;;5085177;28;20044;-78
2023/07/21 13:16:52;;;;;;;6.68;4.20;;;34.10;96.70;;;;;;5096564;28;20047;-82
2023/07/21 13:19:21;;;;;;;9.30;3.88;;;34.20;96.70;;;;;;5104064;28;20122;-81
2023/07/21 13:21:49;;;;;;;5.88;3.47;;;33.90;96.70;;;;;;5095751;28;20040;-79
2023/07/21 13:24:17;;;;;;;7.88;3.45;;;33.90;96.70;;;;;;5100403;28;20044;-79
2023/07/21 13:26:45;;;;;;;12.18;4.43;;;34.00;96.70;;;;;;5101859;28;20139;-77
2023/07/21 13:29:17;;;;;;;8.25;3.80;;;34.10;96.70;;;;;;5100863;28;20131;-77
2023/07/21 13:31:45;;;;;;;12.13;4.38;;;34.50;96.70;;;;;;5102182;28;20047;-78
2023/07/21 13:34:16;;;;;;;7.85;3.83;;;34.80;96.70;;;;;;5114569;27;20035;-81
2023/07/21 13:36:45;;;;;;;9.93;4.22;;;35.00;96.70;;;;;;5090389;28;20054;-79
2023/07/21 13:39:15;;;;;;;8.10;3.90;;;35.30;96.70;;;;;;5094219;28;20067;-80
2023/07/21 13:41:44;;;;;;;12.10;4.47;;;35.50;96.70;;;;;;5100736;28;20063;-80
2023/07/21 13:44:13;;;;;;;7.63;3.60;;;35.80;96.70;;;;;;5107292;27;20070;-80
2023/07/21 13:46:42;;;;;;;7.85;4.13;;;35.60;96.70;;;;;;5085901;28;20047;-80
2023/07/21 13:49:11;;;;;;;8.93;4.20;;;35.80;96.70;;;;;;5089521;28;20047;-79
2023/07/21 13:51:40;;;;;;;8.35;3.90;;;36.10;96.70;;;;;;5093602;28;20477;-80
2023/07/21 13:54:08;;;;;;;12.52;4.28;;;36.10;96.70;;;;;;5102624;28;20075;-80
2023/07/21 13:56:40;;;;;;;9.27;3.75;;;36.10;96.70;;;;;;5094249;28;21384;-81
2023/07/21 13:59:08;;;;;;;14.13;3.95;;;36.10;96.70;;;;;;5099465;28;20117;-80
2023/07/21 14:01:36;;;;;;;8.23;4.30;;;36.40;96.70;;;;;;5083648;28;20135;-80
2023/07/21 14:04:06;;;;;;;8.90;3.90;;;36.30;96.70;;;;;;5104659;28;20047;-81
2023/07/21 14:06:37;;;;;;;7.20;3.65;;;36.50;96.70;;;;;;5100773;28;20047;-79
2023/07/21 14:09:09;;;;;;;9.27;4.07;;;36.70;96.70;;;;;;5088953;28;20101;-81
2023/07/21 14:11:38;;;;;;;10.00;4.30;;;36.70;96.70;;;;;;5093482;28;20198;-80
2023/07/21 14:14:07;;;;;;;9.38;4.50;;;36.80;96.70;;;;;;5093422;28;20038;-80
2023/07/21 14:16:35;;;;;;;6.60;3.35;;;37.00;96.70;;;;;;5091297;28;20044;-81
2023/07/21 14:19:04;;;;;;;6.85;3.80;;;37.00;96.70;;;;;;5106783;28;20050;-80
2023/07/21 14:21:34;;;;;;;8.15;3.95;;;37.00;96.70;;;;;;5088561;28;20576;-81
2023/07/21 14:24:04;;;;;;;10.55;4.75;;;37.20;96.70;;;;;;5106276;28;20043;-80
2023/07/21 14:26:32;;;;;;;11.40;4.00;;;37.40;96.70;;;;;;5100714;28;20400;-81
2023/07/21 14:29:01;;;;;;;7.72;4.32;;;37.50;96.70;;;;;;5102836;28;20044;-81
2023/07/21 14:31:31;;;;;;;7.00;4.18;;;37.60;96.70;;;;;;5099618;28;20036;-80
2023/07/21 14:34:00;;;;;;;8.98;4.10;;;37.90;96.70;;;;;;5123373;27;20046;-79
2023/07/21 14:36:28;;;;;;;10.93;4.20;;;38.00;96.70;;;;;;5113284;27;20493;-80
2023/07/21 14:38:58;;;;;;;9.60;4.35;;;37.80;96.70;;;;;;5111095;27;20481;-79
2023/07/21 14:41:27;;;;;;;10.25;4.50;;;37.80;96.70;;;;;;5091778;28;20049;-81
2023/07/21 14:43:55;;;;;;;10.20;4.03;;;37.70;96.70;;;;;;5097716;28;20139;-80
2023/07/21 14:46:24;;;;;;;9.00;4.13;;;37.90;96.70;;;;;;5102070;28;20063;-78
2023/07/21 14:48:52;;;;;;;10.00;4.40;;;37.80;96.70;;;;;;5071866;28;20455;-79
2023/07/21 14:51:21;;;;;;;10.25;3.92;;;37.80;96.70;;;;;;5120669;27;20040;-79
2023/07/21 14:53:49;;;;;;;11.18;4.40;;;38.00;96.70;;;;;;5096619;28;20052;-79
2023/07/21 14:56:19;;;;;;;11.30;4.25;;;38.00;96.70;;;;;;5099047;28;20048;-78
2023/07/21 14:58:47;;;;;;;9.43;4.10;;;38.00;96.70;;;;;;5105628;28;20152;-79
2023/07/21 15:01:15;;;;;;;9.40;4.05;;;37.90;96.70;;;;;;5086790;28;20036;-79
2023/07/21 15:03:44;;;;;;;10.55;4.20;;;38.00;96.70;;;;;;5084645;28;20060;-80
2023/07/21 15:06:12;;;;;;;9.18;4.10;;;37.80;96.70;;;;;;5089429;28;20067;-80
2023/07/21 15:08:40;;;;;;;9.52;3.90;;;38.10;96.70;;;;;;5097566;28;20043;-80
2023/07/21 15:11:08;;;;;;;8.02;4.05;;;38.50;96.70;;;;;;5101695;28;20134;-79
2023/07/21 15:13:38;;;;;;;12.35;4.20;;;38.40;96.70;;;;;;5104978;28;20075;-79
2023/07/21 15:16:07;;;;;;;11.98;4.55;;;38.50;96.70;;;;;;5106976;27;20094;-80
2023/07/21 15:18:35;;;;;;;7.97;3.38;;;38.20;96.70;;;;;;5086955;28;20048;-81
2023/07/21 15:21:03;;;;;;;10.50;3.83;;;38.30;96.70;;;;;;5112814;27;20051;-80